sensor_id;sensor_type;location;lat;lon;timestamp;temperature;humidity
25450;DHT22;13371;52.080;5.624;2022-10-31T00:00:18;16.50;95.70
25450;DHT22;13371;52.080;5.624;2022-10-31T00:02:44;16.50;95.40
25450;DHT22;13371;52.080;5.624;2022-10-31T00:05:10;16.20;95.50
25450;DHT22;13371;52.080;5.624;2022-10-31T00:07:35;16.20;95.90
25450;DHT22;13371;52.080;5.624;2022-10-31T00:10:01;16.10;96.20
25450;DHT22;13371;52.080;5.624;2022-10-31T00:12:27;15.90;96.60
25450;DHT22;13371;52.080;5.624;2022-10-31T00:14:52;16.10;96.30
25450;DHT22;13371;52.080;5.624;2022-10-31T00:17:21;16.30;96.10
25450;DHT22;13371;52.080;5.624;2022-10-31T00:19:46;16.30;96.00
25450;DHT22;13371;52.080;5.624;2022-10-31T00:22:12;16.40;95.80
25450;DHT22;13371;52.080;5.624;2022-10-31T00:24:38;16.40;95.50
25450;DHT22;13371;52.080;5.624;2022-10-31T00:27:03;16.30;95.70
25450;DHT22;13371;52.080;5.624;2022-10-31T00:29:29;16.40;95.60
25450;DHT22;13371;52.080;5.624;2022-10-31T00:31:54;16.40;95.50
25450;DHT22;13371;52.080;5.624;2022-10-31T00:34:20;16.40;95.60
25450;DHT22;13371;52.080;5.624;2022-10-31T00:36:45;16.30;95.70
25450;DHT22;13371;52.080;5.624;2022-10-31T00:39:11;16.30;95.70
25450;DHT22;13371;52.080;5.624;2022-10-31T00:41:36;16.30;95.60
25450;DHT22;13371;52.080;5.624;2022-10-31T00:44:02;16.30;95.70
25450;DHT22;13371;52.080;5.624;2022-10-31T00:46:28;16.40;95.70
25450;DHT22;13371;52.080;5.624;2022-10-31T00:48:53;16.30;95.80
25450;DHT22;13371;52.080;5.624;2022-10-31T00:51:19;16.10;95.90
25450;DHT22;13371;52.080;5.624;2022-10-31T00:53:44;16.10;96.30
25450;DHT22;13371;52.080;5.624;2022-10-31T00:56:10;15.70;96.90
25450;DHT22;13371;52.080;5.624;2022-10-31T00:58:35;15.70;97.20
25450;DHT22;13371;52.080;5.624;2022-10-31T01:01:01;15.80;97.20
25450;DHT22;13371;52.080;5.624;2022-10-31T01:03:29;15.80;96.80
25450;DHT22;13371;52.080;5.624;2022-10-31T01:05:56;16.00;96.60
25450;DHT22;13371;52.080;5.624;2022-10-31T01:08:22;16.10;96.30
25450;DHT22;13371;52.080;5.624;2022-10-31T01:10:58;16.00;96.30
25450;DHT22;13371;52.080;5.624;2022-10-31T01:13:24;16.00;96.30
25450;DHT22;13371;52.080;5.624;2022-10-31T01:15:56;16.10;96.10
25450;DHT22;13371;52.080;5.624;2022-10-31T01:18:23;16.20;96.00
25450;DHT22;13371;52.080;5.624;2022-10-31T01:21:03;16.10;95.90
25450;DHT22;13371;52.080;5.624;2022-10-31T01:23:29;15.80;96.00
25450;DHT22;13371;52.080;5.624;2022-10-31T01:26:09;15.60;96.80
25450;DHT22;13371;52.080;5.624;2022-10-31T01:28:37;15.90;96.60
25450;DHT22;13371;52.080;5.624;2022-10-31T01:31:06;16.00;96.10
25450;DHT22;13371;52.080;5.624;2022-10-31T01:33:32;15.80;96.00
25450;DHT22;13371;52.080;5.624;2022-10-31T01:35:57;15.80;96.40
25450;DHT22;13371;52.080;5.624;2022-10-31T01:38:23;15.80;96.20
25450;DHT22;13371;52.080;5.624;2022-10-31T01:40:50;15.70;96.50
25450;DHT22;13371;52.080;5.624;2022-10-31T01:43:17;15.70;96.70
25450;DHT22;13371;52.080;5.624;2022-10-31T01:45:50;15.50;96.80
25450;DHT22;13371;52.080;5.624;2022-10-31T01:48:20;15.50;96.90
25450;DHT22;13371;52.080;5.624;2022-10-31T01:50:48;15.70;96.70
25450;DHT22;13371;52.080;5.624;2022-10-31T01:53:16;15.90;96.30
25450;DHT22;13371;52.080;5.624;2022-10-31T01:55:44;15.90;96.20
25450;DHT22;13371;52.080;5.624;2022-10-31T01:58:20;15.80;96.10
25450;DHT22;13371;52.080;5.624;2022-10-31T02:00:49;15.80;96.20
25450;DHT22;13371;52.080;5.624;2022-10-31T02:03:17;15.80;96.10
25450;DHT22;13371;52.080;5.624;2022-10-31T02:05:44;15.80;96.10
25450;DHT22;13371;52.080;5.624;2022-10-31T02:08:26;15.80;96.00
25450;DHT22;13371;52.080;5.624;2022-10-31T02:10:53;15.80;96.00
25450;DHT22;13371;52.080;5.624;2022-10-31T02:13:19;15.80;95.70
25450;DHT22;13371;52.080;5.624;2022-10-31T02:15:57;15.70;95.80
25450;DHT22;13371;52.080;5.624;2022-10-31T02:18:25;15.70;95.50
25450;DHT22;13371;52.080;5.624;2022-10-31T02:21:23;15.60;95.60
25450;DHT22;13371;52.080;5.624;2022-10-31T02:24:14;15.40;96.00
25450;DHT22;13371;52.080;5.624;2022-10-31T02:35:25;15.30;96.20
25450;DHT22;13371;52.080;5.624;2022-10-31T02:38:02;15.30;96.20
25450;DHT22;13371;52.080;5.624;2022-10-31T02:45:30;15.20;95.90
25450;DHT22;13371;52.080;5.624;2022-10-31T02:48:01;15.00;96.20
25450;DHT22;13371;52.080;5.624;2022-10-31T02:50:31;15.10;95.90
25450;DHT22;13371;52.080;5.624;2022-10-31T02:52:58;15.00;95.90
25450;DHT22;13371;52.080;5.624;2022-10-31T02:58:17;15.00;96.10
25450;DHT22;13371;52.080;5.624;2022-10-31T03:00:59;15.00;95.70
25450;DHT22;13371;52.080;5.624;2022-10-31T03:03:40;15.00;95.70
25450;DHT22;13371;52.080;5.624;2022-10-31T03:09:01;14.90;95.80
25450;DHT22;13371;52.080;5.624;2022-10-31T03:11:33;14.90;95.70
25450;DHT22;13371;52.080;5.624;2022-10-31T03:14:10;14.70;95.70
25450;DHT22;13371;52.080;5.624;2022-10-31T03:16:48;14.60;96.20
25450;DHT22;13371;52.080;5.624;2022-10-31T03:19:23;14.60;96.10
25450;DHT22;13371;52.080;5.624;2022-10-31T03:22:31;14.70;96.00
25450;DHT22;13371;52.080;5.624;2022-10-31T03:24:50;14.70;95.80
25450;DHT22;13371;52.080;5.624;2022-10-31T03:27:24;14.60;95.80
25450;DHT22;13371;52.080;5.624;2022-10-31T03:29:54;14.70;95.70
25450;DHT22;13371;52.080;5.624;2022-10-31T03:32:27;14.60;95.70
25450;DHT22;13371;52.080;5.624;2022-10-31T03:34:57;14.60;96.10
25450;DHT22;13371;52.080;5.624;2022-10-31T03:37:26;14.00;97.10
25450;DHT22;13371;52.080;5.624;2022-10-31T03:39:54;14.10;97.00
25450;DHT22;13371;52.080;5.624;2022-10-31T03:42:25;14.20;96.60
25450;DHT22;13371;52.080;5.624;2022-10-31T03:45:13;14.30;96.90
25450;DHT22;13371;52.080;5.624;2022-10-31T03:47:41;14.30;96.50
25450;DHT22;13371;52.080;5.624;2022-10-31T03:50:09;14.30;96.50
25450;DHT22;13371;52.080;5.624;2022-10-31T03:52:43;14.30;96.50
25450;DHT22;13371;52.080;5.624;2022-10-31T03:55:26;14.30;96.30
25450;DHT22;13371;52.080;5.624;2022-10-31T03:58:05;14.20;96.00
25450;DHT22;13371;52.080;5.624;2022-10-31T04:00:33;14.20;96.20
25450;DHT22;13371;52.080;5.624;2022-10-31T04:03:05;14.00;96.00
25450;DHT22;13371;52.080;5.624;2022-10-31T04:05:32;13.90;96.80
25450;DHT22;13371;52.080;5.624;2022-10-31T04:07:59;13.90;96.80
25450;DHT22;13371;52.080;5.624;2022-10-31T04:10:27;14.00;96.70
25450;DHT22;13371;52.080;5.624;2022-10-31T04:12:59;13.80;96.90
25450;DHT22;13371;52.080;5.624;2022-10-31T04:15:27;14.00;96.90
25450;DHT22;13371;52.080;5.624;2022-10-31T04:17:56;14.10;96.60
25450;DHT22;13371;52.080;5.624;2022-10-31T04:20:34;14.10;96.40
25450;DHT22;13371;52.080;5.624;2022-10-31T04:23:01;14.10;96.30
25450;DHT22;13371;52.080;5.624;2022-10-31T04:25:26;14.20;96.10
25450;DHT22;13371;52.080;5.624;2022-10-31T04:27:52;14.20;96.10
25450;DHT22;13371;52.080;5.624;2022-10-31T04:30:18;14.20;96.00
25450;DHT22;13371;52.080;5.624;2022-10-31T04:32:43;14.20;96.00
25450;DHT22;13371;52.080;5.624;2022-10-31T04:35:09;14.10;96.20
25450;DHT22;13371;52.080;5.624;2022-10-31T04:37:34;13.70;96.70
25450;DHT22;13371;52.080;5.624;2022-10-31T04:40:00;13.80;96.50
25450;DHT22;13371;52.080;5.624;2022-10-31T04:42:29;13.80;96.50
25450;DHT22;13371;52.080;5.624;2022-10-31T04:44:55;13.70;97.30
25450;DHT22;13371;52.080;5.624;2022-10-31T04:47:20;13.80;96.70
25450;DHT22;13371;52.080;5.624;2022-10-31T04:49:46;13.80;96.70
25450;DHT22;13371;52.080;5.624;2022-10-31T04:52:11;13.70;96.60
25450;DHT22;13371;52.080;5.624;2022-10-31T04:54:37;13.80;96.50
25450;DHT22;13371;52.080;5.624;2022-10-31T04:57:02;13.80;96.20
25450;DHT22;13371;52.080;5.624;2022-10-31T04:59:28;13.80;96.20
25450;DHT22;13371;52.080;5.624;2022-10-31T05:01:53;14.00;96.10
25450;DHT22;13371;52.080;5.624;2022-10-31T05:04:19;13.90;96.00
25450;DHT22;13371;52.080;5.624;2022-10-31T05:06:45;13.90;95.90
25450;DHT22;13371;52.080;5.624;2022-10-31T05:09:10;13.90;95.90
25450;DHT22;13371;52.080;5.624;2022-10-31T05:11:36;13.80;96.10
25450;DHT22;13371;52.080;5.624;2022-10-31T05:14:01;13.60;96.20
25450;DHT22;13371;52.080;5.624;2022-10-31T05:16:28;13.50;96.70
25450;DHT22;13371;52.080;5.624;2022-10-31T05:18:53;13.60;96.60
25450;DHT22;13371;52.080;5.624;2022-10-31T05:21:19;13.70;96.50
25450;DHT22;13371;52.080;5.624;2022-10-31T05:23:44;13.40;96.50
25450;DHT22;13371;52.080;5.624;2022-10-31T05:26:10;13.50;96.80
25450;DHT22;13371;52.080;5.624;2022-10-31T05:28:35;13.60;96.70
25450;DHT22;13371;52.080;5.624;2022-10-31T05:31:01;13.70;96.30
25450;DHT22;13371;52.080;5.624;2022-10-31T05:33:27;13.60;96.30
25450;DHT22;13371;52.080;5.624;2022-10-31T05:35:52;13.70;96.30
25450;DHT22;13371;52.080;5.624;2022-10-31T05:38:18;13.50;96.70
25450;DHT22;13371;52.080;5.624;2022-10-31T05:40:43;13.60;96.50
25450;DHT22;13371;52.080;5.624;2022-10-31T05:43:09;13.50;96.30
25450;DHT22;13371;52.080;5.624;2022-10-31T05:45:34;13.50;96.40
25450;DHT22;13371;52.080;5.624;2022-10-31T05:48:01;13.40;96.40
25450;DHT22;13371;52.080;5.624;2022-10-31T05:50:28;13.30;96.70
25450;DHT22;13371;52.080;5.624;2022-10-31T05:53:00;13.00;97.00
25450;DHT22;13371;52.080;5.624;2022-10-31T05:55:26;13.00;97.50
25450;DHT22;13371;52.080;5.624;2022-10-31T05:57:53;13.20;96.90
25450;DHT22;13371;52.080;5.624;2022-10-31T06:00:19;13.20;97.00
25450;DHT22;13371;52.080;5.624;2022-10-31T06:02:45;13.00;97.00
25450;DHT22;13371;52.080;5.624;2022-10-31T06:05:11;13.10;97.10
25450;DHT22;13371;52.080;5.624;2022-10-31T06:07:37;12.90;96.80
25450;DHT22;13371;52.080;5.624;2022-10-31T06:10:04;12.80;97.40
25450;DHT22;13371;52.080;5.624;2022-10-31T06:12:30;12.90;97.10
25450;DHT22;13371;52.080;5.624;2022-10-31T06:14:56;12.70;97.70
25450;DHT22;13371;52.080;5.624;2022-10-31T06:17:22;12.80;97.60
25450;DHT22;13371;52.080;5.624;2022-10-31T06:19:47;12.40;98.50
25450;DHT22;13371;52.080;5.624;2022-10-31T06:22:13;12.30;98.80
25450;DHT22;13371;52.080;5.624;2022-10-31T06:24:39;12.70;98.30
25450;DHT22;13371;52.080;5.624;2022-10-31T06:27:05;12.80;97.80
25450;DHT22;13371;52.080;5.624;2022-10-31T06:29:31;12.70;97.50
25450;DHT22;13371;52.080;5.624;2022-10-31T06:31:56;12.40;98.10
25450;DHT22;13371;52.080;5.624;2022-10-31T06:34:22;12.50;98.30
25450;DHT22;13371;52.080;5.624;2022-10-31T06:36:47;12.60;98.30
25450;DHT22;13371;52.080;5.624;2022-10-31T06:39:14;12.80;98.10
25450;DHT22;13371;52.080;5.624;2022-10-31T06:41:39;13.10;97.40
25450;DHT22;13371;52.080;5.624;2022-10-31T06:44:07;13.10;97.00
25450;DHT22;13371;52.080;5.624;2022-10-31T06:46:33;12.80;97.30
25450;DHT22;13371;52.080;5.624;2022-10-31T06:48:58;12.90;97.20
25450;DHT22;13371;52.080;5.624;2022-10-31T06:51:24;12.90;97.30
25450;DHT22;13371;52.080;5.624;2022-10-31T06:53:49;12.60;97.90
25450;DHT22;13371;52.080;5.624;2022-10-31T06:56:15;12.80;98.20
25450;DHT22;13371;52.080;5.624;2022-10-31T06:58:41;13.00;97.80
25450;DHT22;13371;52.080;5.624;2022-10-31T07:01:06;12.80;98.50
25450;DHT22;13371;52.080;5.624;2022-10-31T07:03:32;12.70;99.30
25450;DHT22;13371;52.080;5.624;2022-10-31T07:05:57;13.00;98.60
25450;DHT22;13371;52.080;5.624;2022-10-31T07:08:23;12.80;98.60
25450;DHT22;13371;52.080;5.624;2022-10-31T07:10:54;13.10;98.20
25450;DHT22;13371;52.080;5.624;2022-10-31T07:13:21;13.10;97.90
25450;DHT22;13371;52.080;5.624;2022-10-31T07:15:54;13.10;97.80
25450;DHT22;13371;52.080;5.624;2022-10-31T07:18:20;12.80;99.30
25450;DHT22;13371;52.080;5.624;2022-10-31T07:20:46;13.00;99.40
25450;DHT22;13371;52.080;5.624;2022-10-31T07:23:12;13.20;99.10
25450;DHT22;13371;52.080;5.624;2022-10-31T07:25:39;13.50;99.20
25450;DHT22;13371;52.080;5.624;2022-10-31T07:28:05;13.80;98.80
25450;DHT22;13371;52.080;5.624;2022-10-31T07:30:31;14.00;98.20
25450;DHT22;13371;52.080;5.624;2022-10-31T07:32:57;14.30;97.90
25450;DHT22;13371;52.080;5.624;2022-10-31T07:35:25;14.60;98.30
25450;DHT22;13371;52.080;5.624;2022-10-31T07:37:51;15.00;98.00
25450;DHT22;13371;52.080;5.624;2022-10-31T07:40:18;15.30;97.20
25450;DHT22;13371;52.080;5.624;2022-10-31T07:42:48;15.70;97.00
25450;DHT22;13371;52.080;5.624;2022-10-31T07:45:17;16.20;96.90
25450;DHT22;13371;52.080;5.624;2022-10-31T07:47:48;16.70;96.60
25450;DHT22;13371;52.080;5.624;2022-10-31T07:50:19;17.30;96.20
25450;DHT22;13371;52.080;5.624;2022-10-31T07:52:45;17.80;95.90
25450;DHT22;13371;52.080;5.624;2022-10-31T07:55:11;18.60;95.10
25450;DHT22;13371;52.080;5.624;2022-10-31T07:57:37;19.30;93.10
25450;DHT22;13371;52.080;5.624;2022-10-31T08:00:04;20.00;92.70
25450;DHT22;13371;52.080;5.624;2022-10-31T08:02:30;20.50;91.80
25450;DHT22;13371;52.080;5.624;2022-10-31T08:04:55;21.20;90.90
25450;DHT22;13371;52.080;5.624;2022-10-31T08:07:21;21.80;89.80
25450;DHT22;13371;52.080;5.624;2022-10-31T08:09:52;22.50;87.20
25450;DHT22;13371;52.080;5.624;2022-10-31T08:12:18;23.20;85.00
25450;DHT22;13371;52.080;5.624;2022-10-31T08:14:47;24.00;81.80
25450;DHT22;13371;52.080;5.624;2022-10-31T08:17:13;24.00;78.10
25450;DHT22;13371;52.080;5.624;2022-10-31T08:19:38;24.00;76.20
25450;DHT22;13371;52.080;5.624;2022-10-31T08:22:04;22.60;80.10
25450;DHT22;13371;52.080;5.624;2022-10-31T08:24:33;22.80;79.30
25450;DHT22;13371;52.080;5.624;2022-10-31T08:26:58;22.50;80.60
25450;DHT22;13371;52.080;5.624;2022-10-31T08:29:26;22.10;82.20
25450;DHT22;13371;52.080;5.624;2022-10-31T08:31:52;21.20;84.00
25450;DHT22;13371;52.080;5.624;2022-10-31T08:34:17;21.70;84.40
25450;DHT22;13371;52.080;5.624;2022-10-31T08:36:43;22.20;84.70
25450;DHT22;13371;52.080;5.624;2022-10-31T08:39:11;22.80;84.20
25450;DHT22;13371;52.080;5.624;2022-10-31T08:41:36;23.30;82.30
25450;DHT22;13371;52.080;5.624;2022-10-31T08:44:02;23.40;80.70
25450;DHT22;13371;52.080;5.624;2022-10-31T08:46:27;23.40;81.70
25450;DHT22;13371;52.080;5.624;2022-10-31T08:48:53;22.70;81.30
25450;DHT22;13371;52.080;5.624;2022-10-31T08:51:19;22.40;84.60
25450;DHT22;13371;52.080;5.624;2022-10-31T08:53:44;21.90;84.90
25450;DHT22;13371;52.080;5.624;2022-10-31T08:56:10;21.30;87.40
25450;DHT22;13371;52.080;5.624;2022-10-31T08:58:35;20.50;89.60
25450;DHT22;13371;52.080;5.624;2022-10-31T09:01:01;20.60;90.00
25450;DHT22;13371;52.080;5.624;2022-10-31T09:03:29;20.50;90.50
25450;DHT22;13371;52.080;5.624;2022-10-31T09:06:00;20.00;90.90
25450;DHT22;13371;52.080;5.624;2022-10-31T09:08:32;19.70;91.90
25450;DHT22;13371;52.080;5.624;2022-10-31T09:10:58;19.90;92.00
25450;DHT22;13371;52.080;5.624;2022-10-31T09:13:24;20.30;92.30
25450;DHT22;13371;52.080;5.624;2022-10-31T09:15:50;20.70;92.00
25450;DHT22;13371;52.080;5.624;2022-10-31T09:18:18;19.80;92.00
25450;DHT22;13371;52.080;5.624;2022-10-31T09:20:45;18.50;93.60
25450;DHT22;13371;52.080;5.624;2022-10-31T09:23:12;18.10;94.60
25450;DHT22;13371;52.080;5.624;2022-10-31T09:25:38;18.30;94.90
25450;DHT22;13371;52.080;5.624;2022-10-31T09:28:05;17.80;95.20
25450;DHT22;13371;52.080;5.624;2022-10-31T09:30:32;17.40;95.60
25450;DHT22;13371;52.080;5.624;2022-10-31T09:33:00;16.70;97.50
25450;DHT22;13371;52.080;5.624;2022-10-31T09:35:27;16.80;97.80
25450;DHT22;13371;52.080;5.624;2022-10-31T09:38:01;17.10;97.60
25450;DHT22;13371;52.080;5.624;2022-10-31T09:40:35;17.50;96.60
25450;DHT22;13371;52.080;5.624;2022-10-31T09:46:01;16.50;98.70
25450;DHT22;13371;52.080;5.624;2022-10-31T09:56:15;16.70;98.00
25450;DHT22;13371;52.080;5.624;2022-10-31T09:58:46;16.20;99.60
25450;DHT22;13371;52.080;5.624;2022-10-31T10:01:24;16.30;99.90
25450;DHT22;13371;52.080;5.624;2022-10-31T10:03:54;16.00;99.90
25450;DHT22;13371;52.080;5.624;2022-10-31T10:06:26;16.30;99.20
25450;DHT22;13371;52.080;5.624;2022-10-31T10:08:52;16.00;99.90
25450;DHT22;13371;52.080;5.624;2022-10-31T10:22:22;16.00;99.90
25450;DHT22;13371;52.080;5.624;2022-10-31T10:30:20;16.30;99.90
25450;DHT22;13371;52.080;5.624;2022-10-31T10:32:53;16.20;99.90
25450;DHT22;13371;52.080;5.624;2022-10-31T10:35:31;16.10;99.90
25450;DHT22;13371;52.080;5.624;2022-10-31T10:38:26;16.10;99.90
25450;DHT22;13371;52.080;5.624;2022-10-31T10:40:53;16.50;99.90
25450;DHT22;13371;52.080;5.624;2022-10-31T10:43:33;16.60;99.80
25450;DHT22;13371;52.080;5.624;2022-10-31T10:46:16;16.60;99.90
25450;DHT22;13371;52.080;5.624;2022-10-31T10:59:46;16.50;99.60
25450;DHT22;13371;52.080;5.624;2022-10-31T11:02:23;16.30;99.90
25450;DHT22;13371;52.080;5.624;2022-10-31T11:04:55;16.20;99.90
25450;DHT22;13371;52.080;5.624;2022-10-31T11:07:21;16.20;99.90
25450;DHT22;13371;52.080;5.624;2022-10-31T11:09:47;16.50;99.90
25450;DHT22;13371;52.080;5.624;2022-10-31T11:12:27;16.50;99.90
25450;DHT22;13371;52.080;5.624;2022-10-31T11:14:59;16.50;99.90
25450;DHT22;13371;52.080;5.624;2022-10-31T11:17:37;17.00;99.90
25450;DHT22;13371;52.080;5.624;2022-10-31T11:23:01;17.00;99.20
25450;DHT22;13371;52.080;5.624;2022-10-31T11:25:27;16.30;99.90
25450;DHT22;13371;52.080;5.624;2022-10-31T11:28:08;16.00;99.90
25450;DHT22;13371;52.080;5.624;2022-10-31T11:30:46;16.40;99.90
25450;DHT22;13371;52.080;5.624;2022-10-31T11:33:31;16.50;99.90
25450;DHT22;13371;52.080;5.624;2022-10-31T11:35:58;17.10;99.60
25450;DHT22;13371;52.080;5.624;2022-10-31T11:38:34;17.20;99.00
25450;DHT22;13371;52.080;5.624;2022-10-31T11:41:11;17.70;98.50
25450;DHT22;13371;52.080;5.624;2022-10-31T11:43:39;17.20;98.70
25450;DHT22;13371;52.080;5.624;2022-10-31T11:46:14;17.60;98.20
25450;DHT22;13371;52.080;5.624;2022-10-31T11:48:49;17.90;97.00
25450;DHT22;13371;52.080;5.624;2022-10-31T11:51:25;18.40;97.00
25450;DHT22;13371;52.080;5.624;2022-10-31T11:53:53;17.90;97.10
25450;DHT22;13371;52.080;5.624;2022-10-31T11:56:20;17.80;97.40
25450;DHT22;13371;52.080;5.624;2022-10-31T11:59:01;18.30;96.90
25450;DHT22;13371;52.080;5.624;2022-10-31T12:01:29;18.40;96.10
25450;DHT22;13371;52.080;5.624;2022-10-31T12:04:09;18.00;96.60
25450;DHT22;13371;52.080;5.624;2022-10-31T12:06:37;18.40;96.90
25450;DHT22;13371;52.080;5.624;2022-10-31T12:09:18;18.50;96.90
25450;DHT22;13371;52.080;5.624;2022-10-31T12:15:02;18.20;97.20
25450;DHT22;13371;52.080;5.624;2022-10-31T12:17:48;18.00;97.30
25450;DHT22;13371;52.080;5.624;2022-10-31T12:20:37;17.40;98.90
25450;DHT22;13371;52.080;5.624;2022-10-31T12:29:02;17.90;98.80
25450;DHT22;13371;52.080;5.624;2022-10-31T12:37:28;18.60;97.80
25450;DHT22;13371;52.080;5.624;2022-10-31T12:46:09;18.70;97.90
25450;DHT22;13371;52.080;5.624;2022-10-31T12:51:30;18.60;97.80
25450;DHT22;13371;52.080;5.624;2022-10-31T12:59:22;18.50;98.40
25450;DHT22;13371;52.080;5.624;2022-10-31T13:02:03;18.30;98.20
25450;DHT22;13371;52.080;5.624;2022-10-31T13:07:15;18.20;98.30
25450;DHT22;13371;52.080;5.624;2022-10-31T13:10:00;18.10;98.80
25450;DHT22;13371;52.080;5.624;2022-10-31T13:12:29;17.90;98.90
25450;DHT22;13371;52.080;5.624;2022-10-31T13:14:59;17.70;99.30
25450;DHT22;13371;52.080;5.624;2022-10-31T13:18:16;18.00;99.30
25450;DHT22;13371;52.080;5.624;2022-10-31T13:20:39;18.10;98.80
25450;DHT22;13371;52.080;5.624;2022-10-31T13:23:31;17.80;99.20
25450;DHT22;13371;52.080;5.624;2022-10-31T13:26:01;18.30;98.60
25450;DHT22;13371;52.080;5.624;2022-10-31T13:28:39;18.00;98.70
25450;DHT22;13371;52.080;5.624;2022-10-31T13:31:06;17.90;99.10
25450;DHT22;13371;52.080;5.624;2022-10-31T13:36:38;18.70;97.80
25450;DHT22;13371;52.080;5.624;2022-10-31T13:39:28;18.80;97.20
25450;DHT22;13371;52.080;5.624;2022-10-31T13:44:38;17.90;98.80
25450;DHT22;13371;52.080;5.624;2022-10-31T13:47:04;17.90;99.40
25450;DHT22;13371;52.080;5.624;2022-10-31T13:49:45;18.30;98.10
25450;DHT22;13371;52.080;5.624;2022-10-31T13:54:48;19.30;96.90
25450;DHT22;13371;52.080;5.624;2022-10-31T13:57:21;18.50;97.50
25450;DHT22;13371;52.080;5.624;2022-10-31T13:59:59;18.30;98.10
25450;DHT22;13371;52.080;5.624;2022-10-31T14:02:26;17.90;98.90
25450;DHT22;13371;52.080;5.624;2022-10-31T14:07:52;17.80;99.60
25450;DHT22;13371;52.080;5.624;2022-10-31T14:10:37;17.90;99.00
25450;DHT22;13371;52.080;5.624;2022-10-31T14:13:07;17.90;99.40
25450;DHT22;13371;52.080;5.624;2022-10-31T14:15:34;18.30;98.50
25450;DHT22;13371;52.080;5.624;2022-10-31T14:18:02;18.60;98.10
25450;DHT22;13371;52.080;5.624;2022-10-31T14:20:42;18.40;98.10
25450;DHT22;13371;52.080;5.624;2022-10-31T14:28:50;19.00;97.00
25450;DHT22;13371;52.080;5.624;2022-10-31T14:31:32;19.00;97.00
25450;DHT22;13371;52.080;5.624;2022-10-31T14:34:02;19.30;96.30
25450;DHT22;13371;52.080;5.624;2022-10-31T14:50:48;19.10;96.50
25450;DHT22;13371;52.080;5.624;2022-10-31T14:55:56;18.70;97.20
25450;DHT22;13371;52.080;5.624;2022-10-31T15:01:01;18.10;97.90
25450;DHT22;13371;52.080;5.624;2022-10-31T15:03:29;18.20;97.90
25450;DHT22;13371;52.080;5.624;2022-10-31T15:06:00;18.70;97.10
25450;DHT22;13371;52.080;5.624;2022-10-31T15:08:32;18.50;97.10
25450;DHT22;13371;52.080;5.624;2022-10-31T15:10:58;18.80;96.60
25450;DHT22;13371;52.080;5.624;2022-10-31T15:13:27;18.80;96.80
25450;DHT22;13371;52.080;5.624;2022-10-31T15:15:55;18.90;97.10
25450;DHT22;13371;52.080;5.624;2022-10-31T15:18:26;18.90;95.90
25450;DHT22;13371;52.080;5.624;2022-10-31T15:20:53;18.30;97.20
25450;DHT22;13371;52.080;5.624;2022-10-31T15:23:26;17.80;97.90
25450;DHT22;13371;52.080;5.624;2022-10-31T15:26:03;17.90;98.30
25450;DHT22;13371;52.080;5.624;2022-10-31T15:28:30;18.40;97.50
25450;DHT22;13371;52.080;5.624;2022-10-31T15:30:58;18.40;97.30
25450;DHT22;13371;52.080;5.624;2022-10-31T15:33:29;18.50;96.60
25450;DHT22;13371;52.080;5.624;2022-10-31T15:36:00;18.70;96.90
25450;DHT22;13371;52.080;5.624;2022-10-31T15:38:26;19.00;96.60
25450;DHT22;13371;52.080;5.624;2022-10-31T15:41:05;19.00;96.30
25450;DHT22;13371;52.080;5.624;2022-10-31T15:43:36;19.30;95.70
25450;DHT22;13371;52.080;5.624;2022-10-31T15:46:03;19.30;95.60
25450;DHT22;13371;52.080;5.624;2022-10-31T15:48:29;19.60;95.30
25450;DHT22;13371;52.080;5.624;2022-10-31T15:51:00;19.70;95.00
25450;DHT22;13371;52.080;5.624;2022-10-31T15:53:37;20.00;94.70
25450;DHT22;13371;52.080;5.624;2022-10-31T15:56:12;20.10;94.30
25450;DHT22;13371;52.080;5.624;2022-10-31T15:58:46;20.10;94.20
25450;DHT22;13371;52.080;5.624;2022-10-31T16:01:27;19.80;94.50
25450;DHT22;13371;52.080;5.624;2022-10-31T16:06:30;19.80;94.40
25450;DHT22;13371;52.080;5.624;2022-10-31T16:08:57;19.80;94.70
25450;DHT22;13371;52.080;5.624;2022-10-31T16:11:33;19.80;94.50
25450;DHT22;13371;52.080;5.624;2022-10-31T16:16:48;20.00;94.40
25450;DHT22;13371;52.080;5.624;2022-10-31T16:19:24;19.70;94.50
25450;DHT22;13371;52.080;5.624;2022-10-31T16:21:53;19.90;94.60
25450;DHT22;13371;52.080;5.624;2022-10-31T16:24:26;19.80;94.60
25450;DHT22;13371;52.080;5.624;2022-10-31T16:26:53;19.90;94.50
25450;DHT22;13371;52.080;5.624;2022-10-31T16:29:26;19.60;94.50
25450;DHT22;13371;52.080;5.624;2022-10-31T16:31:52;19.80;94.40
25450;DHT22;13371;52.080;5.624;2022-10-31T16:34:20;20.00;94.20
25450;DHT22;13371;52.080;5.624;2022-10-31T16:36:46;19.70;94.40
25450;DHT22;13371;52.080;5.624;2022-10-31T16:39:12;19.60;94.80
25450;DHT22;13371;52.080;5.624;2022-10-31T16:41:41;19.00;95.20
25450;DHT22;13371;52.080;5.624;2022-10-31T16:44:16;19.00;95.70
25450;DHT22;13371;52.080;5.624;2022-10-31T16:46:42;19.20;95.40
25450;DHT22;13371;52.080;5.624;2022-10-31T16:49:09;19.20;95.20
25450;DHT22;13371;52.080;5.624;2022-10-31T16:51:35;19.10;95.40
25450;DHT22;13371;52.080;5.624;2022-10-31T16:54:00;18.50;96.10
25450;DHT22;13371;52.080;5.624;2022-10-31T16:56:33;17.70;98.00
25450;DHT22;13371;52.080;5.624;2022-10-31T16:59:02;17.70;97.70
25450;DHT22;13371;52.080;5.624;2022-10-31T17:01:30;17.10;99.20
25450;DHT22;13371;52.080;5.624;2022-10-31T17:03:55;16.80;99.80
25450;DHT22;13371;52.080;5.624;2022-10-31T17:06:21;16.70;99.90
25450;DHT22;13371;52.080;5.624;2022-10-31T17:08:46;17.20;99.80
25450;DHT22;13371;52.080;5.624;2022-10-31T17:11:17;17.30;99.30
25450;DHT22;13371;52.080;5.624;2022-10-31T17:13:44;17.10;99.90
25450;DHT22;13371;52.080;5.624;2022-10-31T17:16:12;17.30;99.70
25450;DHT22;13371;52.080;5.624;2022-10-31T17:18:38;17.30;99.80
25450;DHT22;13371;52.080;5.624;2022-10-31T17:21:04;17.40;99.20
25450;DHT22;13371;52.080;5.624;2022-10-31T17:23:32;16.90;99.90
25450;DHT22;13371;52.080;5.624;2022-10-31T17:25:58;16.80;99.90
25450;DHT22;13371;52.080;5.624;2022-10-31T17:28:24;16.70;99.90
25450;DHT22;13371;52.080;5.624;2022-10-31T17:30:54;16.90;99.90
25450;DHT22;13371;52.080;5.624;2022-10-31T17:33:26;17.20;99.90
25450;DHT22;13371;52.080;5.624;2022-10-31T17:35:52;16.70;99.90
25450;DHT22;13371;52.080;5.624;2022-10-31T17:38:17;16.40;99.90
25450;DHT22;13371;52.080;5.624;2022-10-31T17:40:43;16.30;99.90
25450;DHT22;13371;52.080;5.624;2022-10-31T17:43:10;16.40;99.90
25450;DHT22;13371;52.080;5.624;2022-10-31T17:45:39;16.40;99.90
25450;DHT22;13371;52.080;5.624;2022-10-31T17:48:05;16.60;99.90
25450;DHT22;13371;52.080;5.624;2022-10-31T17:50:31;16.70;99.90
25450;DHT22;13371;52.080;5.624;2022-10-31T17:52:57;16.60;99.90
25450;DHT22;13371;52.080;5.624;2022-10-31T17:55:23;16.20;99.90
25450;DHT22;13371;52.080;5.624;2022-10-31T17:57:49;16.60;99.90